Time;durP1;ratioP1;P1;durP2;ratioP2;P2;SDS_P1;SDS_P2;PMS_P1;PMS_P2;Temp;Humidity;BMP_temperature;BMP_pressure;BME280_temperature;BME280_humidity;BME280_pressure;Samples;Min_cycle;Max_cycle;Signal;HPM_P1;HPM_P2
2022/11/26 00:01:18;;;;;;;17.98;6.50;;;5.30;99.90;;;;;;5050607;28;20033;-81
2022/11/26 00:03:46;;;;;;;7.55;3.42;;;5.30;99.90;;;;;;5043503;28;20046;-84
2022/11/26 00:06:34;;;;;;;14.70;6.10;;;5.40;99.90;;;;;;5045830;28;20040;-83
2022/11/26 00:09:02;;;;;;;20.25;5.85;;;5.40;99.90;;;;;;5040424;28;21065;-81
2022/11/26 00:11:28;;;;;;;14.80;7.05;;;5.30;99.90;;;;;;5045070;28;20092;-84
2022/11/26 00:13:55;;;;;;;9.20;5.40;;;5.30;99.90;;;;;;5036672;28;20043;-78
2022/11/26 00:16:21;;;;;;;11.82;5.32;;;5.30;99.90;;;;;;5035139;28;20052;-81
2022/11/26 00:18:47;;;;;;;10.35;5.32;;;5.30;99.90;;;;;;5014154;28;20053;-82
2022/11/26 00:21:25;;;;;;;16.23;6.55;;;5.30;99.90;;;;;;5031969;28;20087;-83
2022/11/26 00:23:52;;;;;;;18.45;6.63;;;5.30;99.90;;;;;;5049239;28;20502;-83
2022/11/26 00:26:21;;;;;;;22.95;8.63;;;5.40;99.90;;;;;;5033393;28;20580;-82
2022/11/26 00:28:49;;;;;;;27.10;9.90;;;5.30;99.90;;;;;;5027202;28;20053;-84
2022/11/26 00:31:16;;;;;;;17.05;8.73;;;5.30;99.90;;;;;;5014337;28;20407;-83
2022/11/26 00:33:42;;;;;;;21.38;8.05;;;5.40;99.90;;;;;;5038299;28;20033;-83
2022/11/26 00:36:23;;;;;;;15.95;7.60;;;5.30;99.90;;;;;;5049444;28;20064;-82
2022/11/26 00:39:15;;;;;;;17.75;8.80;;;5.30;99.90;;;;;;5007701;28;20124;-82
2022/11/26 00:41:47;;;;;;;17.40;8.40;;;5.30;99.90;;;;;;5045594;28;20041;-83
2022/11/26 00:44:20;;;;;;;19.77;8.43;;;5.30;99.90;;;;;;5036996;28;20310;-82
2022/11/26 00:46:47;;;;;;;16.88;8.27;;;5.20;99.90;;;;;;5021125;28;20033;-84
2022/11/26 00:49:14;;;;;;;16.73;8.50;;;5.30;99.90;;;;;;5044167;28;20037;-83
2022/11/26 00:51:41;;;;;;;21.80;9.07;;;5.30;99.90;;;;;;5034919;28;20056;-83
2022/11/26 00:54:12;;;;;;;15.90;7.55;;;5.20;99.90;;;;;;5050486;28;20036;-81
2022/11/26 00:56:39;;;;;;;15.23;5.80;;;5.20;99.90;;;;;;5049383;28;20418;-82
2022/11/26 00:59:06;;;;;;;11.60;7.10;;;5.20;99.90;;;;;;5039468;28;20052;-82
2022/11/26 01:01:32;;;;;;;12.90;7.72;;;5.10;99.90;;;;;;5034282;28;20032;-82
2022/11/26 01:03:58;;;;;;;12.50;6.75;;;5.10;99.90;;;;;;5047955;28;20408;-78
2022/11/26 01:06:32;;;;;;;11.30;6.07;;;5.10;99.90;;;;;;5018564;28;20044;-85
2022/11/26 01:08:59;;;;;;;9.32;5.97;;;5.10;99.90;;;;;;5044244;28;20041;-82
2022/11/26 01:11:25;;;;;;;22.38;7.75;;;5.10;99.90;;;;;;5047024;28;20032;-80
2022/11/26 01:13:53;;;;;;;16.23;7.07;;;5.10;99.90;;;;;;5048038;28;20063;-83
2022/11/26 01:16:22;;;;;;;13.82;7.38;;;5.10;99.90;;;;;;5033457;28;20044;-84
2022/11/26 01:18:51;;;;;;;16.23;6.40;;;5.00;99.90;;;;;;5044297;28;20048;-85
2022/11/26 01:21:19;;;;;;;29.50;7.78;;;5.00;99.90;;;;;;5046094;28;20036;-80
2022/11/26 01:23:45;;;;;;;29.50;7.63;;;5.00;99.90;;;;;;5013080;28;20280;-84
2022/11/26 01:26:19;;;;;;;54.00;7.15;;;5.00;99.90;;;;;;5035706;28;20045;-85
2022/11/26 01:28:45;;;;;;;34.90;7.13;;;5.00;99.90;;;;;;5044749;28;20044;-79
2022/11/26 01:31:18;;;;;;;23.92;7.30;;;5.00;99.90;;;;;;5027738;28;20531;-83
2022/11/26 01:33:45;;;;;;;;;;;5.00;99.90;;;;;;5052289;28;20033;-83
2022/11/26 01:36:19;;;;;;;19.75;6.82;;;5.00;99.90;;;;;;5045832;28;19908;-84
2022/11/26 01:38:45;;;;;;;13.63;6.80;;;4.90;99.90;;;;;;5039868;28;20575;-83
2022/11/26 01:41:26;;;;;;;161.50;11.35;;;4.90;99.90;;;;;;5048126;28;20041;-84
2022/11/26 01:43:56;;;;;;;56.47;9.07;;;4.80;99.90;;;;;;5047046;28;20032;-84
2022/11/26 01:46:25;;;;;;;17.10;7.13;;;4.80;99.90;;;;;;5047936;28;20059;-82
2022/11/26 01:48:52;;;;;;;10.23;4.80;;;4.70;99.90;;;;;;5006811;28;20033;-79
2022/11/26 01:51:27;;;;;;;14.13;7.25;;;4.70;99.90;;;;;;5045929;28;20053;-83
2022/11/26 01:53:59;;;;;;;13.10;7.20;;;4.60;99.90;;;;;;5031358;28;20037;-82
2022/11/26 01:56:36;;;;;;;8.18;6.40;;;4.60;99.90;;;;;;5046726;28;20147;-83
2022/11/26 01:59:11;;;;;;;10.90;6.57;;;4.60;99.90;;;;;;5037699;28;20515;-83
2022/11/26 02:01:38;;;;;;;10.93;5.97;;;4.50;99.90;;;;;;5048618;28;20036;-83
2022/11/26 02:04:18;;;;;;;11.23;6.50;;;4.50;99.90;;;;;;5032580;28;20052;-83
2022/11/26 02:06:48;;;;;;;11.90;6.97;;;4.40;99.90;;;;;;5047757;28;20041;-78
2022/11/26 02:09:15;;;;;;;9.70;6.70;;;4.40;99.90;;;;;;5042791;28;20045;-83
2022/11/26 02:11:41;;;;;;;11.88;6.88;;;4.40;99.90;;;;;;5017773;28;20041;-82
2022/11/26 02:14:24;;;;;;;12.68;7.60;;;4.30;99.90;;;;;;5048607;28;20037;-78
2022/11/26 02:17:09;;;;;;;18.02;6.78;;;4.20;99.90;;;;;;5050307;28;20056;-78
2022/11/26 02:20:03;;;;;;;11.55;6.65;;;4.20;99.90;;;;;;5046896;28;20392;-84
2022/11/26 02:22:48;;;;;;;11.90;5.53;;;4.20;99.90;;;;;;5027610;28;20048;-83
2022/11/26 02:25:39;;;;;;;15.25;6.97;;;4.10;99.90;;;;;;5050554;28;20032;-83
2022/11/26 02:28:14;;;;;;;18.52;7.90;;;4.10;99.90;;;;;;5038844;28;20032;-81
2022/11/26 02:31:01;;;;;;;27.20;9.00;;;4.10;99.90;;;;;;5047618;28;20045;-87
2022/11/26 02:33:59;;;;;;;15.63;7.35;;;4.10;99.90;;;;;;5048435;28;20040;-83
2022/11/26 02:36:36;;;;;;;16.98;7.93;;;4.10;99.90;;;;;;5030145;28;20060;-85
2022/11/26 02:39:17;;;;;;;11.82;6.88;;;4.10;99.90;;;;;;5014730;28;20036;-86
2022/11/26 02:41:49;;;;;;;22.05;9.35;;;4.10;99.90;;;;;;5052564;28;20036;-84
2022/11/26 02:44:19;;;;;;;16.80;8.63;;;4.10;99.90;;;;;;5048011;28;20033;-85
2022/11/26 02:46:48;;;;;;;22.17;9.73;;;4.10;99.90;;;;;;5050562;28;20296;-86
2022/11/26 02:49:18;;;;;;;13.02;7.32;;;4.10;99.90;;;;;;5043437;28;20044;-83
2022/11/26 02:51:48;;;;;;;12.35;6.95;;;4.20;99.90;;;;;;5032175;28;20040;-85
2022/11/26 02:54:15;;;;;;;16.75;8.25;;;4.20;99.90;;;;;;5018839;28;20028;-81
2022/11/26 02:56:42;;;;;;;23.30;8.93;;;4.20;99.90;;;;;;5063001;28;20043;-84
2022/11/26 02:59:09;;;;;;;24.33;9.55;;;4.20;99.90;;;;;;5025151;28;20423;-84
2022/11/26 03:01:47;;;;;;;20.58;9.65;;;4.20;99.90;;;;;;5030322;28;20037;-85
2022/11/26 03:04:20;;;;;;;23.38;9.88;;;4.20;99.90;;;;;;5033485;28;20128;-80
2022/11/26 03:06:47;;;;;;;18.77;8.13;;;4.20;99.90;;;;;;5045656;28;20040;-83
2022/11/26 03:09:16;;;;;;;18.00;8.07;;;4.20;99.90;;;;;;5039220;28;20033;-85
2022/11/26 03:11:43;;;;;;;15.32;7.75;;;4.30;99.90;;;;;;5043553;28;20037;-80
2022/11/26 03:14:10;;;;;;;21.17;7.97;;;4.30;99.90;;;;;;5015944;28;20033;-83
2022/11/26 03:16:36;;;;;;;18.35;9.15;;;4.30;99.90;;;;;;5043814;28;20041;-86
2022/11/26 03:19:03;;;;;;;14.65;8.05;;;4.30;99.90;;;;;;5025544;28;20488;-84
2022/11/26 03:21:31;;;;;;;13.18;7.80;;;4.30;99.90;;;;;;5045293;28;20384;-81
2022/11/26 03:23:58;;;;;;;13.60;7.88;;;4.30;99.90;;;;;;5027193;28;20036;-83
2022/11/26 03:26:24;;;;;;;16.83;7.57;;;4.20;99.90;;;;;;5043364;28;20394;-86
2022/11/26 03:28:50;;;;;;;21.77;9.02;;;4.20;99.90;;;;;;5026811;28;20037;-82
2022/11/26 03:31:17;;;;;;;15.60;8.95;;;4.20;99.90;;;;;;5042432;28;20036;-86
2022/11/26 03:33:43;;;;;;;17.98;9.05;;;4.20;99.90;;;;;;5041459;28;20029;-85
2022/11/26 03:36:09;;;;;;;19.83;8.90;;;4.20;99.90;;;;;;5016688;28;20034;-83
2022/11/26 03:38:36;;;;;;;17.45;8.10;;;4.20;99.90;;;;;;5055902;28;20044;-86
2022/11/26 03:41:03;;;;;;;13.75;8.73;;;4.10;99.90;;;;;;5048009;28;20036;-79
2022/11/26 03:43:29;;;;;;;11.05;7.28;;;4.10;99.90;;;;;;5046490;28;20041;-79
2022/11/26 03:45:56;;;;;;;19.67;8.00;;;4.10;99.90;;;;;;5014389;28;20025;-84
2022/11/26 03:48:22;;;;;;;12.73;7.90;;;4.10;99.90;;;;;;5040341;28;20032;-85
2022/11/26 03:50:48;;;;;;;17.15;9.43;;;4.10;99.90;;;;;;5045448;28;20045;-79
2022/11/26 03:53:15;;;;;;;20.65;9.93;;;4.10;99.90;;;;;;5041541;28;20046;-78
2022/11/26 03:55:41;;;;;;;15.35;8.88;;;4.10;99.90;;;;;;5033658;28;20037;-83
2022/11/26 03:58:07;;;;;;;20.35;9.63;;;4.10;99.90;;;;;;5026929;28;20064;-86
2022/11/26 04:00:34;;;;;;;18.10;10.15;;;4.10;99.90;;;;;;5031749;28;20040;-82
2022/11/26 04:03:00;;;;;;;17.38;9.73;;;4.10;99.90;;;;;;5046594;28;20055;-82
2022/11/26 04:05:27;;;;;;;20.40;10.32;;;4.20;99.90;;;;;;5014803;28;20040;-85
2022/11/26 04:07:53;;;;;;;16.83;9.82;;;4.20;99.90;;;;;;5011441;28;20041;-84
2022/11/26 04:10:20;;;;;;;10.90;7.10;;;4.10;99.90;;;;;;5029413;28;20825;-86
2022/11/26 04:12:46;;;;;;;19.35;9.18;;;4.10;99.90;;;;;;5043949;28;20029;-82
2022/11/26 04:15:12;;;;;;;17.30;8.65;;;4.10;99.90;;;;;;5032991;28;20104;-81
2022/11/26 04:17:39;;;;;;;17.13;8.35;;;4.10;99.90;;;;;;5036697;28;20037;-84
2022/11/26 04:20:06;;;;;;;17.95;7.30;;;4.10;99.90;;;;;;5040403;28;20044;-86
2022/11/26 04:22:32;;;;;;;20.05;8.07;;;4.10;99.90;;;;;;5028371;28;20414;-84
2022/11/26 04:24:58;;;;;;;18.58;8.00;;;4.10;99.90;;;;;;5015986;28;20175;-86
2022/11/26 04:27:25;;;;;;;17.38;9.25;;;4.10;99.90;;;;;;5041931;28;20055;-85
2022/11/26 04:29:51;;;;;;;31.80;9.27;;;4.10;99.90;;;;;;5043286;28;20048;-85
2022/11/26 04:32:17;;;;;;;21.60;8.18;;;4.00;99.90;;;;;;5029380;28;20033;-83
2022/11/26 04:34:44;;;;;;;28.20;7.82;;;4.00;99.90;;;;;;5034898;28;20040;-81
2022/11/26 04:37:10;;;;;;;13.63;7.55;;;4.00;99.90;;;;;;5040558;28;20037;-84
2022/11/26 04:39:36;;;;;;;17.98;8.35;;;4.00;99.90;;;;;;5028895;28;20049;-82
2022/11/26 04:42:03;;;;;;;18.38;8.77;;;4.00;99.90;;;;;;5028939;28;20524;-80
2022/11/26 04:44:29;;;;;;;12.20;8.07;;;4.00;99.90;;;;;;5028212;28;20036;-80
2022/11/26 04:46:55;;;;;;;16.67;8.45;;;3.90;99.90;;;;;;5040146;28;20037;-79
2022/11/26 04:49:22;;;;;;;18.40;8.35;;;3.90;99.90;;;;;;5040292;28;20041;-87
2022/11/26 04:51:48;;;;;;;15.43;8.55;;;3.90;99.90;;;;;;5040900;28;20036;-85
2022/11/26 04:54:14;;;;;;;19.13;8.65;;;3.80;99.90;;;;;;5047442;28;20039;-81
2022/11/26 04:56:40;;;;;;;18.13;10.35;;;3.80;99.90;;;;;;5029863;28;20027;-84
2022/11/26 04:59:07;;;;;;;25.17;13.85;;;3.80;99.90;;;;;;5038146;28;20044;-84
2022/11/26 05:01:33;;;;;;;17.92;10.23;;;3.80;99.90;;;;;;5017838;28;20033;-82
2022/11/26 05:03:59;;;;;;;19.50;10.93;;;3.80;99.90;;;;;;5041492;28;20528;-85
2022/11/26 05:06:26;;;;;;;21.67;9.88;;;3.90;99.90;;;;;;5033472;28;20036;-82
2022/11/26 05:08:52;;;;;;;36.63;16.60;;;3.80;99.90;;;;;;5009185;28;20036;-85
2022/11/26 05:11:18;;;;;;;25.02;12.90;;;3.90;99.90;;;;;;5030833;28;20508;-80
2022/11/26 05:13:45;;;;;;;19.90;11.15;;;3.90;99.90;;;;;;5045019;28;20044;-81
2022/11/26 05:16:11;;;;;;;28.92;14.80;;;3.90;99.90;;;;;;5026086;28;20029;-86
2022/11/26 05:18:37;;;;;;;30.30;14.30;;;4.00;99.90;;;;;;5021872;28;20052;-83
2022/11/26 05:21:05;;;;;;;18.23;12.45;;;4.00;99.90;;;;;;5039921;28;20040;-84
2022/11/26 05:23:31;;;;;;;30.25;14.60;;;4.00;99.90;;;;;;5039318;28;20024;-82
2022/11/26 05:25:58;;;;;;;29.20;12.50;;;4.00;99.90;;;;;;5030855;28;20033;-84
2022/11/26 05:28:24;;;;;;;26.27;12.73;;;4.00;99.90;;;;;;5023514;28;20040;-85
2022/11/26 05:30:59;;;;;;;21.85;12.38;;;4.10;99.90;;;;;;5048112;28;20056;-82
2022/11/26 05:33:26;;;;;;;19.00;11.00;;;4.00;99.90;;;;;;5048391;28;20047;-79
2022/11/26 05:35:53;;;;;;;23.60;11.05;;;4.00;99.90;;;;;;5050824;28;20040;-86
2022/11/26 05:38:19;;;;;;;20.63;11.68;;;4.00;99.90;;;;;;5026583;28;20032;-86
2022/11/26 05:40:45;;;;;;;34.45;13.95;;;4.00;99.90;;;;;;5030750;28;20496;-82
2022/11/26 05:43:12;;;;;;;18.95;9.07;;;4.00;99.90;;;;;;5031370;28;20044;-85
2022/11/26 05:45:38;;;;;;;24.92;12.13;;;4.00;99.90;;;;;;5047111;28;20029;-86
2022/11/26 05:48:05;;;;;;;27.02;13.20;;;4.00;99.90;;;;;;5022642;28;20048;-85
2022/11/26 05:50:31;;;;;;;26.02;13.73;;;4.00;99.90;;;;;;5045603;28;20484;-84
2022/11/26 05:52:58;;;;;;;22.85;11.65;;;4.10;99.90;;;;;;5047596;28;20495;-84
2022/11/26 05:55:24;;;;;;;16.60;9.57;;;4.10;99.90;;;;;;5014842;28;20029;-86
2022/11/26 05:57:51;;;;;;;22.10;11.02;;;4.10;99.90;;;;;;5042543;28;20522;-83
2022/11/26 06:00:18;;;;;;;27.80;12.27;;;4.10;99.90;;;;;;5045659;28;20029;-85
2022/11/26 06:02:44;;;;;;;22.02;11.23;;;4.10;99.90;;;;;;5027963;28;20414;-80
2022/11/26 06:05:11;;;;;;;22.10;12.30;;;4.10;99.90;;;;;;5048168;28;20032;-85
2022/11/26 06:07:37;;;;;;;25.02;11.90;;;4.10;99.90;;;;;;5042047;28;20048;-84
2022/11/26 06:10:04;;;;;;;30.02;12.25;;;4.10;99.90;;;;;;5039822;28;20048;-78
2022/11/26 06:12:30;;;;;;;26.42;13.77;;;4.10;99.90;;;;;;5046482;28;20387;-85
2022/11/26 06:14:57;;;;;;;27.38;12.02;;;4.10;99.90;;;;;;5018501;28;20186;-81
2022/11/26 06:17:23;;;;;;;23.85;10.88;;;4.10;99.90;;;;;;5030430;28;20037;-85
2022/11/26 06:19:49;;;;;;;20.27;11.20;;;4.10;99.90;;;;;;5032615;28;20037;-82
2022/11/26 06:22:16;;;;;;;21.55;10.50;;;4.00;99.90;;;;;;5049590;28;20028;-84
2022/11/26 06:24:42;;;;;;;14.05;7.40;;;4.10;99.90;;;;;;5020169;28;20021;-81
2022/11/26 06:27:08;;;;;;;17.83;9.20;;;4.00;99.90;;;;;;5034212;28;20041;-81
2022/11/26 06:29:35;;;;;;;18.05;9.00;;;4.00;99.90;;;;;;5014639;28;20692;-85
2022/11/26 06:32:01;;;;;;;22.38;10.15;;;4.00;99.90;;;;;;5028737;28;20060;-83
2022/11/26 06:34:27;;;;;;;19.08;9.43;;;4.00;99.90;;;;;;5045657;28;20404;-82
2022/11/26 06:36:53;;;;;;;22.58;10.18;;;3.90;99.90;;;;;;5018653;28;20048;-81
2022/11/26 06:39:20;;;;;;;15.30;9.13;;;3.90;99.90;;;;;;5027941;28;20029;-83
2022/11/26 06:41:46;;;;;;;12.70;7.75;;;3.90;99.90;;;;;;5033113;28;20037;-80
2022/11/26 06:44:12;;;;;;;15.00;8.30;;;3.90;99.90;;;;;;5043695;28;20029;-83
2022/11/26 06:46:38;;;;;;;18.98;8.90;;;3.80;99.90;;;;;;5019299;28;20045;-80
2022/11/26 06:49:05;;;;;;;19.65;10.77;;;3.80;99.90;;;;;;5028077;28;20503;-83
2022/11/26 06:51:32;;;;;;;21.35;10.68;;;3.80;99.90;;;;;;5046139;28;20040;-83
2022/11/26 06:53:59;;;;;;;20.65;10.70;;;3.80;99.90;;;;;;5036402;28;20036;-80
2022/11/26 06:56:25;;;;;;;19.77;10.82;;;3.80;99.90;;;;;;5051086;28;20033;-84
2022/11/26 06:58:55;;;;;;;16.70;10.02;;;3.70;99.90;;;;;;5025481;28;20391;-83
2022/11/26 07:01:24;;;;;;;16.13;8.93;;;3.80;99.90;;;;;;5033610;28;20035;-77
2022/11/26 07:03:51;;;;;;;23.02;11.20;;;3.70;99.90;;;;;;5044105;28;20057;-83
2022/11/26 07:06:22;;;;;;;19.98;10.73;;;3.70;99.90;;;;;;5033988;28;20037;-82
2022/11/26 07:08:50;;;;;;;14.15;8.95;;;3.70;99.90;;;;;;5027284;28;20040;-79
2022/11/26 07:11:18;;;;;;;17.08;8.85;;;3.70;99.90;;;;;;5043685;28;20029;-81
2022/11/26 07:13:44;;;;;;;18.55;10.80;;;3.70;99.90;;;;;;5050062;28;20036;-85
2022/11/26 07:16:11;;;;;;;15.35;9.98;;;3.70;99.90;;;;;;5030259;28;20500;-82
2022/11/26 07:18:38;;;;;;;18.13;10.40;;;3.70;99.90;;;;;;5039187;28;20029;-81
2022/11/26 07:21:10;;;;;;;14.48;7.93;;;3.70;99.90;;;;;;5027825;28;20033;-80
2022/11/26 07:23:36;;;;;;;20.80;9.85;;;3.70;99.90;;;;;;5013618;28;20044;-84
2022/11/26 07:26:05;;;;;;;22.48;10.70;;;3.60;99.90;;;;;;5029948;28;20029;-85
2022/11/26 07:28:32;;;;;;;14.85;9.35;;;3.60;99.90;;;;;;5040686;28;20041;-82
2022/11/26 07:31:01;;;;;;;18.13;11.05;;;3.60;99.90;;;;;;5022843;28;20047;-85
2022/11/26 07:33:28;;;;;;;21.60;11.15;;;3.60;99.90;;;;;;5030487;28;20041;-85
2022/11/26 07:35:58;;;;;;;22.40;10.27;;;3.60;99.90;;;;;;5040242;28;20026;-82
2022/11/26 07:38:25;;;;;;;16.58;9.20;;;3.60;99.90;;;;;;5036274;28;20038;-83
2022/11/26 07:40:52;;;;;;;17.85;10.23;;;3.60;99.90;;;;;;5045878;28;20068;-82
2022/11/26 07:43:18;;;;;;;16.60;9.63;;;3.60;99.90;;;;;;5028124;28;20040;-84
2022/11/26 07:45:44;;;;;;;20.02;10.50;;;3.60;99.90;;;;;;5041336;28;20032;-85
2022/11/26 07:48:11;;;;;;;23.58;11.20;;;3.60;99.90;;;;;;5024327;28;20048;-85
2022/11/26 07:50:41;;;;;;;25.43;11.40;;;3.60;99.90;;;;;;5040862;28;20041;-80
2022/11/26 07:53:07;;;;;;;23.08;11.50;;;3.60;99.90;;;;;;5038737;28;20036;-77
2022/11/26 07:55:34;;;;;;;21.85;11.48;;;3.60;99.90;;;;;;5028592;28;20029;-84
2022/11/26 07:58:00;;;;;;;18.83;10.68;;;3.60;99.90;;;;;;5003216;28;20040;-86
2022/11/26 08:00:26;;;;;;;25.58;12.38;;;3.70;99.90;;;;;;5039447;28;20040;-89
2022/11/26 08:02:52;;;;;;;19.27;9.93;;;3.70;99.90;;;;;;5027088;28;20081;-77
2022/11/26 08:05:19;;;;;;;29.73;12.32;;;3.70;99.90;;;;;;5037890;28;20354;-85
2022/11/26 08:07:45;;;;;;;26.17;12.90;;;3.80;99.90;;;;;;5024051;28;20041;-84
2022/11/26 08:10:12;;;;;;;23.73;13.10;;;3.80;99.90;;;;;;5029351;28;20045;-85
2022/11/26 08:12:38;;;;;;;22.30;12.48;;;3.80;99.90;;;;;;5012562;28;20052;-82
2022/11/26 08:15:05;;;;;;;20.17;11.02;;;3.80;99.90;;;;;;5023047;28;20026;-84
2022/11/26 08:17:31;;;;;;;24.92;12.60;;;3.80;99.90;;;;;;5033874;28;20029;-78
2022/11/26 08:19:57;;;;;;;20.27;13.27;;;3.90;99.90;;;;;;5013713;28;20693;-84
2022/11/26 08:22:24;;;;;;;21.90;12.55;;;3.90;99.90;;;;;;5047178;28;20045;-80
2022/11/26 08:24:50;;;;;;;22.85;12.15;;;4.00;99.90;;;;;;5014542;28;20036;-83
2022/11/26 08:27:16;;;;;;;19.48;12.68;;;4.00;99.90;;;;;;5029275;28;20029;-77
2022/11/26 08:29:42;;;;;;;18.80;12.32;;;4.00;99.90;;;;;;5047871;28;20039;-86
2022/11/26 08:32:09;;;;;;;21.92;12.60;;;4.10;99.90;;;;;;5030421;28;20036;-84
2022/11/26 08:34:35;;;;;;;16.85;10.35;;;4.20;99.90;;;;;;5047215;28;20040;-82
2022/11/26 08:37:02;;;;;;;21.05;13.05;;;4.20;99.90;;;;;;5027433;28;20028;-76
2022/11/26 08:39:28;;;;;;;22.17;12.95;;;4.30;99.90;;;;;;5043565;28;20052;-83
2022/11/26 08:41:54;;;;;;;24.27;15.55;;;4.40;99.90;;;;;;5046795;28;20468;-81
2022/11/26 08:44:21;;;;;;;29.00;15.73;;;4.50;99.90;;;;;;5013757;28;20029;-83
2022/11/26 08:46:47;;;;;;;24.58;14.65;;;4.60;99.90;;;;;;5046456;28;20040;-84
2022/11/26 08:49:15;;;;;;;29.63;15.82;;;4.70;99.90;;;;;;5024755;28;20028;-81
2022/11/26 08:51:42;;;;;;;32.33;16.08;;;4.80;99.90;;;;;;5029997;28;20033;-82
2022/11/26 08:54:09;;;;;;;37.25;18.50;;;5.00;99.90;;;;;;5029707;28;20036;-83
2022/11/26 08:56:36;;;;;;;32.95;18.35;;;5.20;99.90;;;;;;5029705;28;20037;-81
2022/11/26 08:59:11;;;;;;;32.03;18.73;;;5.30;99.90;;;;;;5039026;28;20895;-83
2022/11/26 09:01:37;;;;;;;31.70;17.70;;;5.50;99.90;;;;;;5043297;28;20037;-83
2022/11/26 09:04:04;;;;;;;31.48;17.02;;;5.60;99.90;;;;;;5042630;28;20298;-80
2022/11/26 09:06:32;;;;;;;35.17;17.15;;;5.70;99.90;;;;;;5042827;28;20424;-82
2022/11/26 09:09:12;;;;;;;38.88;19.65;;;5.80;99.90;;;;;;5021250;28;20041;-82
2022/11/26 09:11:56;;;;;;;37.88;18.42;;;5.90;99.90;;;;;;5025931;28;20021;-83
2022/11/26 09:14:24;;;;;;;35.33;18.77;;;5.90;99.90;;;;;;5042173;28;20063;-82
2022/11/26 09:16:52;;;;;;;26.02;15.13;;;6.00;99.90;;;;;;5043390;28;20025;-80
2022/11/26 09:19:18;;;;;;;31.42;16.90;;;6.00;99.90;;;;;;5040186;28;20033;-83
2022/11/26 09:21:46;;;;;;;29.67;16.80;;;6.00;99.90;;;;;;5044316;28;20424;-83
2022/11/26 09:24:12;;;;;;;31.90;17.50;;;6.00;99.90;;;;;;5025362;28;20033;-83
2022/11/26 09:26:39;;;;;;;34.25;17.13;;;6.00;99.90;;;;;;5042457;28;20404;-84
2022/11/26 09:29:05;;;;;;;31.15;18.35;;;6.00;99.90;;;;;;5020695;28;20489;-82
2022/11/26 09:31:32;;;;;;;31.42;19.25;;;6.00;99.90;;;;;;5042852;28;20487;-82
2022/11/26 09:34:00;;;;;;;24.75;15.63;;;6.10;99.90;;;;;;5042210;28;20037;-84
2022/11/26 09:36:26;;;;;;;29.90;17.30;;;6.10;99.90;;;;;;5025848;28;20048;-83
2022/11/26 09:38:58;;;;;;;30.85;17.88;;;6.10;99.90;;;;;;5037379;28;20045;-81
2022/11/26 09:41:43;;;;;;;34.75;19.85;;;6.20;99.90;;;;;;5042636;28;20026;-79
2022/11/26 09:44:35;;;;;;;35.35;19.23;;;6.20;99.90;;;;;;5041931;28;20041;-82
2022/11/26 09:47:07;;;;;;;35.08;19.83;;;6.30;99.90;;;;;;5023865;28;20045;-81
2022/11/26 09:49:44;;;;;;;35.88;20.30;;;6.30;99.90;;;;;;5039489;28;20522;-78
2022/11/26 09:52:14;;;;;;;37.95;20.45;;;6.40;99.90;;;;;;5025371;28;20033;-75
2022/11/26 09:54:41;;;;;;;42.92;21.42;;;6.50;99.90;;;;;;5041718;28;20067;-79
2022/11/26 09:57:47;;;;;;;38.92;22.15;;;6.60;99.90;;;;;;5021307;28;20056;-78
2022/11/26 10:00:27;;;;;;;39.05;20.60;;;6.70;99.90;;;;;;5042927;28;20056;-79
2022/11/26 10:02:55;;;;;;;35.67;20.38;;;6.70;99.90;;;;;;5041030;28;20029;-79
2022/11/26 10:05:45;;;;;;;36.00;21.33;;;6.80;99.90;;;;;;5025021;28;20524;-78
2022/11/26 10:08:50;;;;;;;33.03;20.10;;;6.90;99.90;;;;;;5025888;28;20057;-80
2022/11/26 10:11:26;;;;;;;33.25;20.17;;;6.90;99.90;;;;;;5028734;28;20504;-79
2022/11/26 10:14:06;;;;;;;29.80;19.77;;;7.00;99.90;;;;;;5044593;28;20033;-79
2022/11/26 10:16:51;;;;;;;33.72;19.48;;;7.10;99.90;;;;;;5009141;28;20477;-79
2022/11/26 10:19:25;;;;;;;32.40;19.35;;;7.20;99.90;;;;;;5024042;28;20056;-80
2022/11/26 10:21:59;;;;;;;37.10;19.92;;;7.20;99.90;;;;;;5028258;28;20393;-79
2022/11/26 10:24:44;;;;;;;31.33;19.10;;;7.30;99.90;;;;;;5011152;28;20049;-80
2022/11/26 10:27:18;;;;;;;49.65;24.98;;;7.40;99.90;;;;;;5042019;28;20487;-77
2022/11/26 10:29:51;;;;;;;34.92;20.70;;;7.40;99.90;;;;;;5010446;28;20033;-77
2022/11/26 10:32:26;;;;;;;40.10;20.98;;;7.50;99.90;;;;;;5027967;28;20037;-79
2022/11/26 10:34:55;;;;;;;31.45;17.95;;;7.50;99.90;;;;;;5028391;28;20037;-79
2022/11/26 10:37:23;;;;;;;33.40;19.85;;;7.60;99.90;;;;;;5023552;28;20052;-75
2022/11/26 10:39:56;;;;;;;34.80;19.25;;;7.70;99.90;;;;;;5011610;28;20519;-79
2022/11/26 10:42:23;;;;;;;38.72;19.70;;;7.70;99.90;;;;;;5010445;28;20038;-77
2022/11/26 10:44:51;;;;;;;33.40;18.90;;;7.70;99.90;;;;;;5027599;28;20041;-83
2022/11/26 10:47:25;;;;;;;36.45;18.80;;;7.80;99.90;;;;;;5023450;28;20421;-76
2022/11/26 10:49:55;;;;;;;39.50;21.25;;;7.80;99.90;;;;;;5025575;28;20046;-78
2022/11/26 10:52:25;;;;;;;24.25;14.85;;;7.90;99.90;;;;;;5010428;28;20037;-76
2022/11/26 10:55:19;;;;;;;32.28;18.05;;;7.90;99.90;;;;;;5011307;28;20044;-79
2022/11/26 10:58:05;;;;;;;31.85;18.65;;;8.00;99.90;;;;;;5022255;28;20680;-81
2022/11/26 11:00:38;;;;;;;27.05;16.25;;;8.00;99.90;;;;;;5038085;28;20579;-78
2022/11/26 11:03:25;;;;;;;30.13;16.30;;;8.10;99.90;;;;;;5027114;28;20038;-81
2022/11/26 11:06:17;;;;;;;32.75;14.98;;;8.20;99.90;;;;;;5028476;28;20033;-82
2022/11/26 11:08:45;;;;;;;28.33;15.23;;;8.30;99.90;;;;;;5022079;28;20053;-79
2022/11/26 11:11:38;;;;;;;31.45;14.82;;;8.40;99.90;;;;;;5012652;28;20507;-80
2022/11/26 11:14:04;;;;;;;32.90;14.60;;;8.50;99.90;;;;;;5011160;28;20492;-81
2022/11/26 11:16:38;;;;;;;30.85;14.38;;;8.60;99.90;;;;;;5027879;28;20040;-78
2022/11/26 11:19:20;;;;;;;40.10;18.00;;;8.70;99.90;;;;;;5019107;28;20405;-80
2022/11/26 11:21:47;;;;;;;38.83;17.15;;;8.70;99.90;;;;;;5009367;28;20033;-80
2022/11/26 11:24:16;;;;;;;35.72;17.52;;;8.80;99.90;;;;;;5010316;28;20401;-79
2022/11/26 11:26:49;;;;;;;36.40;15.57;;;8.80;99.90;;;;;;5010439;28;20496;-79
2022/11/26 11:29:33;;;;;;;34.67;14.32;;;8.90;99.90;;;;;;5038266;28;20045;-81
2022/11/26 11:32:03;;;;;;;26.33;12.75;;;8.90;99.90;;;;;;5026765;28;20033;-81
2022/11/26 11:34:37;;;;;;;25.08;10.23;;;8.90;99.90;;;;;;5025870;28;20034;-79
2022/11/26 11:37:24;;;;;;;34.90;13.52;;;9.00;99.90;;;;;;5008455;28;20037;-76
2022/11/26 11:40:13;;;;;;;28.80;13.20;;;9.00;99.90;;;;;;5026063;28;20046;-80
2022/11/26 11:42:40;;;;;;;26.00;13.40;;;9.00;99.90;;;;;;5009969;28;20034;-79
2022/11/26 11:45:22;;;;;;;25.58;13.82;;;9.10;99.90;;;;;;5043192;28;20044;-81
2022/11/26 11:47:52;;;;;;;26.27;12.57;;;9.20;99.90;;;;;;5020432;28;20040;-81
2022/11/26 11:50:45;;;;;;;23.20;12.15;;;9.30;99.90;;;;;;5026431;28;20042;-80
2022/11/26 11:53:26;;;;;;;26.27;13.25;;;9.40;99.90;;;;;;5009939;28;20459;-80
2022/11/26 11:56:17;;;;;;;24.98;10.93;;;9.50;99.90;;;;;;5007886;28;20456;-81
2022/11/26 11:58:59;;;;;;;27.30;14.48;;;9.60;99.90;;;;;;5021081;28;20531;-81
2022/11/26 12:01:38;;;;;;;29.70;12.05;;;9.70;99.90;;;;;;4992051;28;20041;-79
2022/11/26 12:04:48;;;;;;;31.52;11.32;;;9.80;99.90;;;;;;5024893;28;20033;-81
2022/11/26 12:07:35;;;;;;;25.90;10.65;;;9.80;99.90;;;;;;5006030;28;20617;-75
2022/11/26 12:10:40;;;;;;;30.08;11.82;;;9.90;99.90;;;;;;5026212;28;20037;-81
2022/11/26 12:13:11;;;;;;;30.30;13.38;;;9.90;99.90;;;;;;5004612;28;20038;-82
2022/11/26 12:15:45;;;;;;;27.65;11.90;;;9.90;99.90;;;;;;4989118;28;20049;-77
2022/11/26 12:18:25;;;;;;;23.10;10.43;;;9.80;99.90;;;;;;5001944;28;20052;-81
2022/11/26 12:20:57;;;;;;;20.67;10.30;;;9.80;99.90;;;;;;5010141;28;20041;-78
2022/11/26 12:23:45;;;;;;;24.05;9.20;;;9.70;99.90;;;;;;5027133;28;20029;-82
2022/11/26 12:26:20;;;;;;;27.13;10.00;;;9.70;99.90;;;;;;5042703;28;20352;-79
2022/11/26 12:29:23;;;;;;;20.38;7.95;;;9.60;99.90;;;;;;5020926;28;20048;-81
2022/11/26 12:31:59;;;;;;;17.02;7.72;;;9.60;99.90;;;;;;5008627;28;20508;-82
2022/11/26 12:34:37;;;;;;;16.17;8.20;;;9.60;99.90;;;;;;5006888;28;20429;-82
2022/11/26 12:37:19;;;;;;;17.23;7.72;;;9.60;99.90;;;;;;5007291;28;20034;-78
2022/11/26 12:39:48;;;;;;;18.38;7.05;;;9.60;99.90;;;;;;5019733;28;20400;-80
2022/11/26 12:42:44;;;;;;;23.02;7.60;;;9.50;99.90;;;;;;5042255;28;20040;-81
2022/11/26 12:45:45;;;;;;;17.60;7.57;;;9.60;99.90;;;;;;5009502;28;20516;-80
2022/11/26 12:48:41;;;;;;;20.73;8.48;;;9.60;99.90;;;;;;5021177;28;20034;-82
2022/11/26 12:51:20;;;;;;;24.20;7.50;;;9.60;99.90;;;;;;5021349;28;20041;-83
2022/11/26 12:53:59;;;;;;;23.20;8.43;;;9.70;99.90;;;;;;5006468;28;20511;-80
2022/11/26 12:56:44;;;;;;;25.35;9.35;;;9.70;99.90;;;;;;5009512;28;20057;-78
2022/11/26 12:59:31;;;;;;;23.27;8.30;;;9.80;99.90;;;;;;5019759;28;20519;-81
2022/11/26 13:01:59;;;;;;;20.90;7.63;;;9.80;99.90;;;;;;5025352;28;20045;-81
2022/11/26 13:04:27;;;;;;;24.85;16.27;;;9.80;99.90;;;;;;5041790;28;20485;-80